Seabulk Challenge — KNJL — position and weather

sailwx.info

Track history (hours):
 
Tides and Currents Weather Stations Pressure Air Temp Water Temp Dewpoint Dewpoint Depression Visibility Wind Speed Wind Dir Waves Ship Positions

Seabulk Challenge

Owner: Seabulk Tankers, Inc., Fort Lauderdale, FL. More information available from US FCC via Universal Licensing System and Coast Guard Vessel Documentation Center.

Last reported at 2014-Oct-01 09:17 UTC. Time now 2014-Oct-02 06:29 UTC.
Position N 33°45' W 076°55'.

Length 192 m; draft 8.5 m.

Type: Tanker. MMSI: 303104000.

Date/timePositionNaut miles runAvg speedWind from/ knotsBaromVisibWave heightAir tempDewpointWater temp
2014-Oct-01 09:17N 33°45' W 076°55'1215.3
2014-Oct-01 08:30N 33°53' W 076°45'1415.2
2014-Oct-01 07:34N 34°03' W 076°33'1515.1
2014-Oct-01 06:33N 34°14' W 076°20'1515.0
2014-Oct-01 05:32N 34°24' W 076°06'1514.8
2014-Oct-01 04:33N 34°34' W 075°53'1615.0
2014-Oct-01 03:29N 34°45' W 075°39'1514.4
2014-Oct-01 02:25N 34°56' W 075°25'2814.3
2014-Oct-01 00:29N 35°17' W 075°03'24714.6
2014-Sep-30 07:32N 39°18' W 073°58'1515.4
2014-Sep-30 06:33N 39°33' W 073°55'1515.4
2014-Sep-30 05:33N 39°48' W 073°52'1615.5
2014-Sep-30 04:33N 40°04' W 073°50'1515.1
2014-Sep-30 03:33N 40°19' W 073°50'1313.0
2014-Sep-30 02:33N 40°29' W 074°00'1211.8
2014-Sep-30 01:34N 40°30' W 074°16'7 6.6
2014-Sep-30 00:33N 40°36' W 074°12'2 0.1
2014-Sep-29 03:33N 40°38' W 074°12'4 3.6
2014-Sep-29 02:33N 40°39' W 074°07'4 4.2
2014-Sep-29 01:33N 40°37' W 074°03'7 7.2
2014-Sep-29 00:33N 40°30' W 073°58'9 9.1
2014-Sep-28 23:34N 40°25' W 073°48'1414.0
2014-Sep-28 22:33N 40°11' W 073°45'1514.5
2014-Sep-28 21:33N 39°56' W 073°43'1515.0
2014-Sep-28 20:33N 39°41' W 073°43'1514.6
2014-Sep-28 19:33N 39°27' W 073°45'1514.6
2014-Sep-28 18:33N 39°12' W 073°47'1514.6
2014-Sep-28 17:33N 38°58' W 073°50'1614.5
2014-Sep-28 16:27N 38°42' W 073°54'7314.7
2014-Sep-28 11:29N 37°30' W 074°08'3114.5
2014-Sep-28 09:23N 37°00' W 074°15'3014.4
2014-Sep-28 07:17N 36°30' W 074°22'1114.2
2014-Sep-28 06:31N 36°20' W 074°23'1815.4
2014-Sep-28 05:21N 36°02' W 074°27'11714.7
2014-Sep-27 21:26N 34°17' W 075°30'48316.2
2014-Sep-26 15:32N 27°06' W 079°43'2818.6
2014-Sep-26 14:04N 26°38' W 079°45'918.3
2014-Sep-26 13:33N 26°29' W 079°46'1818.0
2014-Sep-26 12:33N 26°11' W 079°47'1817.6
2014-Sep-26 11:33N 25°54' W 079°50'  
2014-Sep-24 06:31N 29°57' W 090°13'1010.3
2014-Sep-24 05:33N 29°59' W 090°25'1111.4
2014-Sep-24 04:34N 30°02' W 090°37'1111.0
2014-Sep-24 03:33N 29°60' W 090°50'0 0.0
2014-Sep-23 01:27N 29°60' W 090°50'2 2.4
2014-Sep-23 00:33N 29°60' W 090°48'1010.3
2014-Sep-22 23:33N 30°03' W 090°36'1010.3
2014-Sep-22 22:32N 29°59' W 090°25'  
Track history (hours):
 
Tides and Currents Weather Stations Pressure Air Temp Water Temp Dewpoint Dewpoint Depression Visibility Wind Speed Wind Dir Waves Ship Positions

Seabulk Challenge

Owner: Seabulk Tankers, Inc., Fort Lauderdale, FL. More information available from US FCC via Universal Licensing System and Coast Guard Vessel Documentation Center.

Last reported at 2014-Oct-01 09:17 UTC. Time now 2014-Oct-02 06:29 UTC.
Position N 33°45' W 076°55'.

Length 192 m; draft 8.5 m.

Type: Tanker. MMSI: 303104000.

Date/timePositionNaut miles runAvg speedWind from/ knotsBaromVisibWave heightAir tempDewpointWater temp
2014-Oct-01 09:17N 33°45' W 076°55'1215.3
2014-Oct-01 08:30N 33°53' W 076°45'1415.2
2014-Oct-01 07:34N 34°03' W 076°33'1515.1
2014-Oct-01 06:33N 34°14' W 076°20'1515.0
2014-Oct-01 05:32N 34°24' W 076°06'1514.8
2014-Oct-01 04:33N 34°34' W 075°53'1615.0
2014-Oct-01 03:29N 34°45' W 075°39'1514.4
2014-Oct-01 02:25N 34°56' W 075°25'2814.3
2014-Oct-01 00:29N 35°17' W 075°03'24714.6
2014-Sep-30 07:32N 39°18' W 073°58'1515.4
2014-Sep-30 06:33N 39°33' W 073°55'1515.4
2014-Sep-30 05:33N 39°48' W 073°52'1615.5
2014-Sep-30 04:33N 40°04' W 073°50'1515.1
2014-Sep-30 03:33N 40°19' W 073°50'1313.0
2014-Sep-30 02:33N 40°29' W 074°00'1211.8
2014-Sep-30 01:34N 40°30' W 074°16'7 6.6
2014-Sep-30 00:33N 40°36' W 074°12'2 0.1
2014-Sep-29 03:33N 40°38' W 074°12'4 3.6
2014-Sep-29 02:33N 40°39' W 074°07'4 4.2
2014-Sep-29 01:33N 40°37' W 074°03'7 7.2
2014-Sep-29 00:33N 40°30' W 073°58'9 9.1
2014-Sep-28 23:34N 40°25' W 073°48'1414.0
2014-Sep-28 22:33N 40°11' W 073°45'1514.5
2014-Sep-28 21:33N 39°56' W 073°43'1515.0
2014-Sep-28 20:33N 39°41' W 073°43'1514.6
2014-Sep-28 19:33N 39°27' W 073°45'1514.6
2014-Sep-28 18:33N 39°12' W 073°47'1514.6
2014-Sep-28 17:33N 38°58' W 073°50'1614.5
2014-Sep-28 16:27N 38°42' W 073°54'7314.7
2014-Sep-28 11:29N 37°30' W 074°08'3114.5
2014-Sep-28 09:23N 37°00' W 074°15'3014.4
2014-Sep-28 07:17N 36°30' W 074°22'1114.2
2014-Sep-28 06:31N 36°20' W 074°23'1815.4
2014-Sep-28 05:21N 36°02' W 074°27'11714.7
2014-Sep-27 21:26N 34°17' W 075°30'48316.2
2014-Sep-26 15:32N 27°06' W 079°43'2818.6
2014-Sep-26 14:04N 26°38' W 079°45'918.3
2014-Sep-26 13:33N 26°29' W 079°46'1818.0
2014-Sep-26 12:33N 26°11' W 079°47'1817.6
2014-Sep-26 11:33N 25°54' W 079°50'  
2014-Sep-24 06:31N 29°57' W 090°13'1010.3
2014-Sep-24 05:33N 29°59' W 090°25'1111.4
2014-Sep-24 04:34N 30°02' W 090°37'1111.0
2014-Sep-24 03:33N 29°60' W 090°50'0 0.0
2014-Sep-23 01:27N 29°60' W 090°50'2 2.4
2014-Sep-23 00:33N 29°60' W 090°48'1010.3
2014-Sep-22 23:33N 30°03' W 090°36'1010.3
2014-Sep-22 22:32N 29°59' W 090°25'  

Dump ship's entire track history